Norwegian Jewel — C6TX6 — position and weather

sailwx.info

Track history (hours):
 
Tides and Currents Weather Stations Pressure Air Temp Water Temp Dewpoint Dewpoint Depression Visibility Wind Speed Wind Dir Waves Ship Positions

Norwegian Jewel

Last reported at 2018-Jun-21 02:42 UTC. Time now 2018-Jun-22 07:41 UTC.
Position N 58°09' W 135°19'.

Type: Ship. MMSI: 311827000.

Date/timePositionNaut miles runAvg speedWind from/ knotsBaromVisibWave heightAir tempDewpointWater temp
2018-Jun-21 02:42N 58°09' W 135°19'1 6.8
2018-Jun-21 02:30N 58°09' W 135°22'2 0.2
2018-Jun-20 15:32N 58°09' W 135°27'6 9.0
2018-Jun-20 14:52N 58°14' W 135°33'410.8
2018-Jun-20 14:31N 58°16' W 135°39'510.7
2018-Jun-20 14:01N 58°18' W 135°49'510.8
2018-Jun-20 13:31N 58°19' W 135°59'611.0
2018-Jun-20 13:01N 58°19' W 136°09'  
2018-Jun-17 00:15N 58°19' W 136°12'311.9
2018-Jun-17 00:00N 58°20' W 136°07'611.1
2018-Jun-16 23:30N 58°24' W 135°59'5 9.5
2018-Jun-16 23:00N 58°28' W 136°03'612.6
2018-Jun-16 22:31N 58°35' W 136°03'713.3
2018-Jun-16 22:01N 58°41' W 136°06'816.0
2018-Jun-16 21:31N 58°46' W 136°19'816.8
2018-Jun-16 21:00N 58°50' W 136°32'9 1.6
2018-Jun-16 15:28N 58°45' W 136°19'716.2
2018-Jun-16 15:00N 58°40' W 136°09'815.1
2018-Jun-16 14:31N 58°33' W 136°04'612.6
2018-Jun-16 14:01N 58°27' W 135°60'4 8.4
2018-Jun-16 13:30N 58°23' W 135°57'5 9.3
2018-Jun-16 13:00N 58°18' W 135°53'612.1
2018-Jun-16 12:30N 58°17' W 135°42'611.6
2018-Jun-16 12:00N 58°15' W 135°31'611.3
2018-Jun-16 11:30N 58°13' W 135°21'  
2018-Jun-13 11:45N 54°57' W 131°08'515.7
2018-Jun-13 11:27N 54°52' W 131°07'716.4
2018-Jun-13 11:01N 54°45' W 131°10'816.1
2018-Jun-13 10:29N 54°37' W 131°16'817.5
2018-Jun-13 10:00N 54°29' W 131°13'1121.0
2018-Jun-13 09:30N 54°19' W 131°06'1020.1
2018-Jun-13 09:00N 54°09' W 131°04'1020.3
2018-Jun-13 08:30N 53°59' W 131°03'1020.6
2018-Jun-13 08:00N 53°49' W 131°03'1020.9
2018-Jun-13 07:30N 53°38' W 131°03'1121.0
2018-Jun-13 07:00N 53°28' W 131°03'1320.3
2018-Jun-13 06:22N 53°16' W 130°56'10420.2
2018-Jun-13 01:15N 51°41' W 129°45'520.0
2018-Jun-13 00:59N 51°37' W 129°40'1020.7
2018-Jun-13 00:30N 51°28' W 129°32'1019.8
2018-Jun-13 00:00N 51°22' W 129°20'1019.9
2018-Jun-12 23:30N 51°16' W 129°07'1019.8
2018-Jun-12 23:00N 51°10' W 128°55'4 7.2
2018-Jun-12 22:30N 51°08' W 128°60'612.1
2018-Jun-12 22:00N 51°13' W 129°06'815.9
2018-Jun-12 21:30N 51°19' W 129°13'917.8
2018-Jun-12 21:00N 51°24' W 129°24'917.9
2018-Jun-12 20:30N 51°29' W 129°37'2 4.2
2018-Jun-12 19:59N 51°30' W 129°34'917.6
2018-Jun-12 19:30N 51°24' W 129°24'1019.6
2018-Jun-12 19:00N 51°19' W 129°11'1020.0
2018-Jun-12 18:31N 51°14' W 128°57'1020.3
2018-Jun-12 18:01N 51°12' W 128°41'1020.3
2018-Jun-12 17:30N 51°09' W 128°25'1020.1
2018-Jun-12 17:00N 51°06' W 128°10'1020.2
2018-Jun-12 16:30N 51°02' W 127°55'917.4
2018-Jun-12 16:00N 50°57' W 127°44'918.7
2018-Jun-12 15:30N 50°51' W 127°32'1021.0
2018-Jun-12 15:00N 50°47' W 127°17'1121.1
2018-Jun-12 14:30N 50°43' W 127°01'1120.7
2018-Jun-12 13:59N 50°38' W 126°47'918.1
2018-Jun-12 13:30N 50°31' W 126°38'4619.7
2018-Jun-12 11:09N 50°20' W 125°27'213.4
2018-Jun-12 10:59N 50°19' W 125°25'919.5
2018-Jun-12 10:30N 50°10' W 125°22'612.8
2018-Jun-12 10:00N 50°05' W 125°16'714.3
2018-Jun-12 09:30N 49°58' W 125°10'714.0
2018-Jun-12 09:00N 49°53' W 125°02'612.0
2018-Jun-12 08:30N 49°49' W 124°56'713.3
2018-Jun-12 08:00N 49°44' W 124°49'612.9
2018-Jun-12 07:30N 49°39' W 124°42'713.1
2018-Jun-12 07:00N 49°35' W 124°36'713.0
2018-Jun-12 06:30N 49°29' W 124°29'713.3
2018-Jun-12 06:00N 49°26' W 124°21'713.3
2018-Jun-12 05:31N 49°24' W 124°11'713.7
2018-Jun-12 04:59N 49°23' W 124°00'813.7
2018-Jun-12 04:25N 49°22' W 123°48'1114.0
2018-Jun-12 03:38N 49°20' W 123°32'314.6
2018-Jun-12 03:27N 49°19' W 123°28'715.4
2018-Jun-12 03:00N 49°18' W 123°17'1 1.1
2018-Jun-12 02:30N 49°18' W 123°17'0 0.4
2018-Jun-12 01:57N 49°18' W 123°16'2 3.6
2018-Jun-12 01:30N 49°18' W 123°19'3 5.2
2018-Jun-12 01:00N 49°19' W 123°23'918.6
2018-Jun-12 00:30N 49°19' W 123°08'2 4.1
2018-Jun-12 00:00N 49°17' W 123°07'0 0.0
2018-Jun-11 23:28N 49°17' W 123°07'0 0.0
2018-Jun-11 22:58N 49°17' W 123°07'0 0.0
2018-Jun-11 22:28N 49°17' W 123°07'0 0.0
2018-Jun-11 21:58N 49°17' W 123°07'0 0.0
2018-Jun-11 21:27N 49°17' W 123°07'0 0.0
2018-Jun-11 21:00N 49°17' W 123°07'0 0.0
2018-Jun-11 20:30N 49°17' W 123°07'0 0.0
2018-Jun-11 20:00N 49°17' W 123°07'0 0.0
2018-Jun-11 19:30N 49°17' W 123°07'0 0.0
2018-Jun-11 18:59N 49°17' W 123°07'0 0.0
2018-Jun-11 18:29N 49°17' W 123°07'0 0.0
2018-Jun-11 17:59N 49°17' W 123°07'0 0.0
2018-Jun-11 17:29N 49°17' W 123°07'0 0.0
2018-Jun-11 16:59N 49°17' W 123°07'0 0.0
2018-Jun-11 16:28N 49°17' W 123°07'0 0.0
2018-Jun-11 15:58N 49°17' W 123°07'0 0.0
2018-Jun-11 15:28N 49°17' W 123°07'0 0.0
2018-Jun-11 14:58N 49°17' W 123°07'0 0.0
2018-Jun-11 14:31N 49°17' W 123°07'0 0.0
2018-Jun-11 14:00N 49°17' W 123°07'0 0.0
2018-Jun-11 13:30N 49°17' W 123°07'0 0.0
2018-Jun-11 13:00N 49°17' W 123°07'1 2.6
2018-Jun-11 12:30N 49°18' W 123°07'611.7
2018-Jun-11 12:00N 49°18' W 123°16'713.5
2018-Jun-11 11:30N 49°19' W 123°27'2014.3
2018-Jun-11 10:06N 49°22' W 123°57'316.8
2018-Jun-11 09:55N 49°22' W 124°02'716.7
2018-Jun-11 09:30N 49°24' W 124°12'916.9
2018-Jun-11 08:57N 49°27' W 124°26'817.2
2018-Jun-11 08:30N 49°33' W 124°34'817.1
2018-Jun-11 08:00N 49°39' W 124°42'917.6
2018-Jun-11 07:30N 49°46' W 124°52'816.8
2018-Jun-11 07:00N 49°52' W 125°00'816.2
2018-Jun-11 06:30N 49°58' W 125°09'714.3
2018-Jun-11 06:00N 50°04' W 125°15'612.6
2018-Jun-11 05:30N 50°09' W 125°21'712.7
2018-Jun-11 04:59N 50°15' W 125°23'5 8.8
2018-Jun-11 04:27N 50°20' W 125°25'  
Track history (hours):
 
Tides and Currents Weather Stations Pressure Air Temp Water Temp Dewpoint Dewpoint Depression Visibility Wind Speed Wind Dir Waves Ship Positions

Norwegian Jewel

Last reported at 2018-Jun-21 02:42 UTC. Time now 2018-Jun-22 07:41 UTC.
Position N 58°09' W 135°19'.

Type: Ship. MMSI: 311827000.

Date/timePositionNaut miles runAvg speedWind from/ knotsBaromVisibWave heightAir tempDewpointWater temp
2018-Jun-21 02:42N 58°09' W 135°19'1 6.8
2018-Jun-21 02:30N 58°09' W 135°22'2 0.2
2018-Jun-20 15:32N 58°09' W 135°27'6 9.0
2018-Jun-20 14:52N 58°14' W 135°33'410.8
2018-Jun-20 14:31N 58°16' W 135°39'510.7
2018-Jun-20 14:01N 58°18' W 135°49'510.8
2018-Jun-20 13:31N 58°19' W 135°59'611.0
2018-Jun-20 13:01N 58°19' W 136°09'  
2018-Jun-17 00:15N 58°19' W 136°12'311.9
2018-Jun-17 00:00N 58°20' W 136°07'611.1
2018-Jun-16 23:30N 58°24' W 135°59'5 9.5
2018-Jun-16 23:00N 58°28' W 136°03'612.6
2018-Jun-16 22:31N 58°35' W 136°03'713.3
2018-Jun-16 22:01N 58°41' W 136°06'816.0
2018-Jun-16 21:31N 58°46' W 136°19'816.8
2018-Jun-16 21:00N 58°50' W 136°32'9 1.6
2018-Jun-16 15:28N 58°45' W 136°19'716.2
2018-Jun-16 15:00N 58°40' W 136°09'815.1
2018-Jun-16 14:31N 58°33' W 136°04'612.6
2018-Jun-16 14:01N 58°27' W 135°60'4 8.4
2018-Jun-16 13:30N 58°23' W 135°57'5 9.3
2018-Jun-16 13:00N 58°18' W 135°53'612.1
2018-Jun-16 12:30N 58°17' W 135°42'611.6
2018-Jun-16 12:00N 58°15' W 135°31'611.3
2018-Jun-16 11:30N 58°13' W 135°21'  
2018-Jun-13 11:45N 54°57' W 131°08'515.7
2018-Jun-13 11:27N 54°52' W 131°07'716.4
2018-Jun-13 11:01N 54°45' W 131°10'816.1
2018-Jun-13 10:29N 54°37' W 131°16'817.5
2018-Jun-13 10:00N 54°29' W 131°13'1121.0
2018-Jun-13 09:30N 54°19' W 131°06'1020.1
2018-Jun-13 09:00N 54°09' W 131°04'1020.3
2018-Jun-13 08:30N 53°59' W 131°03'1020.6
2018-Jun-13 08:00N 53°49' W 131°03'1020.9
2018-Jun-13 07:30N 53°38' W 131°03'1121.0
2018-Jun-13 07:00N 53°28' W 131°03'1320.3
2018-Jun-13 06:22N 53°16' W 130°56'10420.2
2018-Jun-13 01:15N 51°41' W 129°45'520.0
2018-Jun-13 00:59N 51°37' W 129°40'1020.7
2018-Jun-13 00:30N 51°28' W 129°32'1019.8
2018-Jun-13 00:00N 51°22' W 129°20'1019.9
2018-Jun-12 23:30N 51°16' W 129°07'1019.8
2018-Jun-12 23:00N 51°10' W 128°55'4 7.2
2018-Jun-12 22:30N 51°08' W 128°60'612.1
2018-Jun-12 22:00N 51°13' W 129°06'815.9
2018-Jun-12 21:30N 51°19' W 129°13'917.8
2018-Jun-12 21:00N 51°24' W 129°24'917.9
2018-Jun-12 20:30N 51°29' W 129°37'2 4.2
2018-Jun-12 19:59N 51°30' W 129°34'917.6
2018-Jun-12 19:30N 51°24' W 129°24'1019.6
2018-Jun-12 19:00N 51°19' W 129°11'1020.0
2018-Jun-12 18:31N 51°14' W 128°57'1020.3
2018-Jun-12 18:01N 51°12' W 128°41'1020.3
2018-Jun-12 17:30N 51°09' W 128°25'1020.1
2018-Jun-12 17:00N 51°06' W 128°10'1020.2
2018-Jun-12 16:30N 51°02' W 127°55'917.4
2018-Jun-12 16:00N 50°57' W 127°44'918.7
2018-Jun-12 15:30N 50°51' W 127°32'1021.0
2018-Jun-12 15:00N 50°47' W 127°17'1121.1
2018-Jun-12 14:30N 50°43' W 127°01'1120.7
2018-Jun-12 13:59N 50°38' W 126°47'918.1
2018-Jun-12 13:30N 50°31' W 126°38'4619.7
2018-Jun-12 11:09N 50°20' W 125°27'213.4
2018-Jun-12 10:59N 50°19' W 125°25'919.5
2018-Jun-12 10:30N 50°10' W 125°22'612.8
2018-Jun-12 10:00N 50°05' W 125°16'714.3
2018-Jun-12 09:30N 49°58' W 125°10'714.0
2018-Jun-12 09:00N 49°53' W 125°02'612.0
2018-Jun-12 08:30N 49°49' W 124°56'713.3
2018-Jun-12 08:00N 49°44' W 124°49'612.9
2018-Jun-12 07:30N 49°39' W 124°42'713.1
2018-Jun-12 07:00N 49°35' W 124°36'713.0
2018-Jun-12 06:30N 49°29' W 124°29'713.3
2018-Jun-12 06:00N 49°26' W 124°21'713.3
2018-Jun-12 05:31N 49°24' W 124°11'713.7
2018-Jun-12 04:59N 49°23' W 124°00'813.7
2018-Jun-12 04:25N 49°22' W 123°48'1114.0
2018-Jun-12 03:38N 49°20' W 123°32'314.6
2018-Jun-12 03:27N 49°19' W 123°28'715.4
2018-Jun-12 03:00N 49°18' W 123°17'1 1.1
2018-Jun-12 02:30N 49°18' W 123°17'0 0.4
2018-Jun-12 01:57N 49°18' W 123°16'2 3.6
2018-Jun-12 01:30N 49°18' W 123°19'3 5.2
2018-Jun-12 01:00N 49°19' W 123°23'918.6
2018-Jun-12 00:30N 49°19' W 123°08'2 4.1
2018-Jun-12 00:00N 49°17' W 123°07'0 0.0
2018-Jun-11 23:28N 49°17' W 123°07'0 0.0
2018-Jun-11 22:58N 49°17' W 123°07'0 0.0
2018-Jun-11 22:28N 49°17' W 123°07'0 0.0
2018-Jun-11 21:58N 49°17' W 123°07'0 0.0
2018-Jun-11 21:27N 49°17' W 123°07'0 0.0
2018-Jun-11 21:00N 49°17' W 123°07'0 0.0
2018-Jun-11 20:30N 49°17' W 123°07'0 0.0
2018-Jun-11 20:00N 49°17' W 123°07'0 0.0
2018-Jun-11 19:30N 49°17' W 123°07'0 0.0
2018-Jun-11 18:59N 49°17' W 123°07'0 0.0
2018-Jun-11 18:29N 49°17' W 123°07'0 0.0
2018-Jun-11 17:59N 49°17' W 123°07'0 0.0
2018-Jun-11 17:29N 49°17' W 123°07'0 0.0
2018-Jun-11 16:59N 49°17' W 123°07'0 0.0
2018-Jun-11 16:28N 49°17' W 123°07'0 0.0
2018-Jun-11 15:58N 49°17' W 123°07'0 0.0
2018-Jun-11 15:28N 49°17' W 123°07'0 0.0
2018-Jun-11 14:58N 49°17' W 123°07'0 0.0
2018-Jun-11 14:31N 49°17' W 123°07'0 0.0
2018-Jun-11 14:00N 49°17' W 123°07'0 0.0
2018-Jun-11 13:30N 49°17' W 123°07'0 0.0
2018-Jun-11 13:00N 49°17' W 123°07'1 2.6
2018-Jun-11 12:30N 49°18' W 123°07'611.7
2018-Jun-11 12:00N 49°18' W 123°16'713.5
2018-Jun-11 11:30N 49°19' W 123°27'2014.3
2018-Jun-11 10:06N 49°22' W 123°57'316.8
2018-Jun-11 09:55N 49°22' W 124°02'716.7
2018-Jun-11 09:30N 49°24' W 124°12'916.9
2018-Jun-11 08:57N 49°27' W 124°26'817.2
2018-Jun-11 08:30N 49°33' W 124°34'817.1
2018-Jun-11 08:00N 49°39' W 124°42'917.6
2018-Jun-11 07:30N 49°46' W 124°52'816.8
2018-Jun-11 07:00N 49°52' W 125°00'816.2
2018-Jun-11 06:30N 49°58' W 125°09'714.3
2018-Jun-11 06:00N 50°04' W 125°15'612.6
2018-Jun-11 05:30N 50°09' W 125°21'712.7
2018-Jun-11 04:59N 50°15' W 125°23'5 8.8
2018-Jun-11 04:27N 50°20' W 125°25'  

Dump ship's entire track history